UTAV

Turkmenabat Airport

Airport
ICAO code
UTAV
IATA Code
CRZ
Summary
ICAO Region
EUR
ICAO Territory
Location

Chardzhev (Türkmenabat), Turkmenistan,

Serving
Chardzhev
Elevation
630 ft
Coordinates
39° 5' 2" N , 63° 36' 41" E
Metar
UTAV 201600Z 01004KT CAVOK 33/08 Q1003 R31/CLRD70 NOSIG

Runways

Designator Length Width Surface Rops
15/33 2750 42 ASP No/No

Airport map

Aerial View

SKYbrary Partners:

Safety knowledge contributed by: